Little Rock, Arkansas
Current Conditions -  °F | °C
As of 6:53 AM on Monday 22 Dec 2014 (Local Time) from KLIT Reporting Station
Haze Haze  
Wind Chill: 50°   Ceiling: 500
Heat Index: 50°   Visibility: 5mi
Dew Point: 46°   Wind: 12mph
Humidity: 86%   Direction: 160°SSE
Pressure: 29.76"   Gusts: NA
Location:  34.75°N, 92.27°W
Report Text: KLIT 221253Z 16010KT 5SM BR OVC005 10/08 A2976 RMK AO2 DZE10 SLP078 P0000 T01000078
Loading
Personal Weather Stations






























Interactive Weather Map New forecast layout! Learn more

10-Day Weather Forecast

Advertisements
Track Severe Weather on mobile